createdAt,value
2022-08-26T00:02:40.659Z,3.10
2022-08-26T00:07:43.578Z,3.08
2022-08-26T00:12:45.767Z,5.20
2022-08-26T00:17:48.546Z,2.05
2022-08-26T00:22:50.324Z,3.00
2022-08-26T00:27:52.650Z,3.95
2022-08-26T00:32:55.448Z,4.55
2022-08-26T00:37:58.260Z,1.95
2022-08-26T00:43:01.157Z,4.10
2022-08-26T00:48:05.090Z,4.85
2022-08-26T00:53:25.892Z,5.18
2022-08-26T00:58:32.249Z,6.13
2022-08-26T01:03:35.098Z,2.63
2022-08-26T01:08:36.939Z,3.63
2022-08-26T01:13:39.755Z,2.03
2022-08-26T01:18:43.323Z,6.28
2022-08-26T01:23:48.720Z,2.05
2022-08-26T01:28:53.846Z,2.85
2022-08-26T01:34:05.684Z,2.10
2022-08-26T01:39:08.412Z,2.28
2022-08-26T01:44:18.522Z,1.95
2022-08-26T01:49:21.736Z,4.05
2022-08-26T01:54:25.549Z,5.53
2022-08-26T01:59:30.505Z,1.95
2022-08-26T02:04:41.357Z,7.30
2022-08-26T02:09:44.340Z,3.75
2022-08-26T02:14:51.909Z,2.85
2022-08-26T02:19:53.823Z,5.35
2022-08-26T02:25:16.357Z,3.95
2022-08-26T02:30:21.884Z,3.38
2022-08-26T02:35:24.420Z,5.05
2022-08-26T02:40:32.691Z,3.03
2022-08-26T02:45:35.286Z,7.50
2022-08-26T02:50:37.547Z,8.15
2022-08-26T02:55:41.875Z,4.30
2022-08-26T03:00:52.841Z,3.70
2022-08-26T03:05:56.332Z,7.72
2022-08-26T03:10:58.097Z,5.07
2022-08-26T03:16:01.967Z,4.50
2022-08-26T03:21:08.487Z,5.00
2022-08-26T03:26:13.015Z,5.57
2022-08-26T03:31:14.818Z,2.20
2022-08-26T03:36:16.707Z,5.40
2022-08-26T03:41:18.768Z,2.95
2022-08-26T03:46:21.037Z,5.18
2022-08-26T03:51:22.853Z,4.95
2022-08-26T03:56:27.201Z,5.63
2022-08-26T04:01:30.093Z,3.75
2022-08-26T04:06:38.765Z,4.47
2022-08-26T04:11:43.655Z,4.13
2022-08-26T04:16:46.899Z,4.78
2022-08-26T04:21:53.358Z,6.70
2022-08-26T04:26:56.596Z,5.30
2022-08-26T04:31:58.939Z,6.30
2022-08-26T04:37:01.041Z,10.45
2022-08-26T04:42:02.993Z,3.92
2022-08-26T04:47:05.901Z,10.80
2022-08-26T04:52:07.811Z,5.45
2022-08-26T04:57:09.571Z,6.18
2022-08-26T05:02:11.849Z,5.35
2022-08-26T05:07:13.636Z,4.88
2022-08-26T05:12:19.423Z,11.67
2022-08-26T05:17:21.712Z,9.50
2022-08-26T05:22:23.476Z,4.35
2022-08-26T05:27:25.263Z,7.55
2022-08-26T05:32:27.524Z,4.50
2022-08-26T05:37:30.962Z,5.13
2022-08-26T05:42:33.462Z,4.20
2022-08-26T05:47:35.989Z,5.78
2022-08-26T05:52:38.230Z,5.53
2022-08-26T05:57:42.894Z,9.73
2022-08-26T06:02:44.924Z,12.93
2022-08-26T06:08:09.258Z,12.85
2022-08-26T06:13:12.371Z,6.45
2022-08-26T06:18:17.238Z,2.97
2022-08-26T06:23:38.241Z,6.32
2022-08-26T06:28:43.748Z,4.25
2022-08-26T06:33:47.504Z,7.53
2022-08-26T06:38:51.260Z,4.63
2022-08-26T06:43:53.257Z,5.38
2022-08-26T06:48:58.174Z,8.57
2022-08-26T06:54:01.175Z,3.58
2022-08-26T06:59:04.654Z,5.85
2022-08-26T07:09:12.720Z,8.18
2022-08-26T07:14:16.772Z,4.85
2022-08-26T07:19:30.339Z,5.25
2022-08-26T07:24:36.750Z,4.40
2022-08-26T07:29:39.548Z,7.03
2022-08-26T07:34:42.319Z,4.80
2022-08-26T07:39:45.151Z,6.00
2022-08-26T07:44:47.613Z,5.03
2022-08-26T07:49:52.778Z,11.77
2022-08-26T07:54:58.190Z,10.53
2022-08-26T08:00:00.288Z,5.43
2022-08-26T08:05:02.422Z,7.63
2022-08-26T08:10:09.778Z,4.03
2022-08-26T08:15:15.630Z,4.97
2022-08-26T08:20:17.748Z,6.93
2022-08-26T08:25:20.449Z,4.53
2022-08-26T08:30:23.311Z,4.85
2022-08-26T08:35:26.419Z,5.75
2022-08-26T08:40:29.158Z,7.60
2022-08-26T08:45:40.971Z,6.20
2022-08-26T08:50:49.311Z,4.53
2022-08-26T08:56:31.908Z,6.95
2022-08-26T09:01:52.471Z,4.80
2022-08-26T09:06:59.327Z,4.57
2022-08-26T09:12:02.509Z,5.97
2022-08-26T09:17:38.249Z,5.50
2022-08-26T09:22:40.760Z,10.27
2022-08-26T09:27:51.510Z,2.80
2022-08-26T09:33:10.948Z,5.78
2022-08-26T09:38:36.219Z,5.45
2022-08-26T09:43:37.982Z,4.40
2022-08-26T09:48:42.683Z,7.13
2022-08-26T09:53:53.870Z,4.45
2022-08-26T09:58:57.229Z,5.28
2022-08-26T10:04:10.199Z,9.95
2022-08-26T10:09:17.538Z,7.47
2022-08-26T10:14:29.569Z,7.15
2022-08-26T10:19:55.704Z,8.73
2022-08-26T10:25:03.283Z,9.57
2022-08-26T10:30:10.442Z,4.72
2022-08-26T10:35:15.015Z,7.20
2022-08-26T10:40:29.629Z,3.60
2022-08-26T10:45:41.289Z,6.47
2022-08-26T10:50:47.396Z,6.03
2022-08-26T10:55:57.119Z,4.88
2022-08-26T11:01:33.260Z,4.07
2022-08-26T11:06:37.113Z,10.68
2022-08-26T11:11:42.118Z,4.60
2022-08-26T11:22:21.525Z,8.98
2022-08-26T11:27:23.446Z,6.18
2022-08-26T11:32:49.626Z,4.35
2022-08-26T11:37:57.375Z,7.07
2022-08-26T11:43:08.418Z,4.88
2022-08-26T11:48:19.137Z,8.40
2022-08-26T11:53:24.118Z,3.75
2022-08-26T11:58:28.955Z,4.53
2022-08-26T12:03:47.224Z,7.38
2022-08-26T12:08:49.832Z,4.90
2022-08-26T12:14:04.338Z,16.20
2022-08-26T12:19:41.778Z,6.78
2022-08-26T12:24:55.995Z,10.20
2022-08-26T12:30:14.012Z,4.53
2022-08-26T12:35:18.964Z,9.40
2022-08-26T12:40:39.622Z,8.70
2022-08-26T12:46:00.484Z,5.07
2022-08-26T12:51:03.322Z,8.10
2022-08-26T12:56:45.939Z,11.48
2022-08-26T13:01:49.499Z,9.27
2022-08-26T13:07:24.797Z,5.68
2022-08-26T13:12:29.976Z,10.48
2022-08-26T13:17:32.445Z,7.20
2022-08-26T13:22:34.731Z,5.90
2022-08-26T13:27:39.347Z,5.40
2022-08-26T13:32:41.505Z,5.78
2022-08-26T13:37:45.715Z,3.40
2022-08-26T13:42:50.185Z,8.32
2022-08-26T13:47:52.028Z,10.07
2022-08-26T13:52:53.942Z,8.65
2022-08-26T13:57:59.184Z,8.77
2022-08-26T14:08:03.639Z,7.80
2022-08-26T14:13:05.541Z,11.23
2022-08-26T14:18:12.058Z,5.78
2022-08-26T14:23:14.566Z,7.85
2022-08-26T14:28:16.868Z,11.05
2022-08-26T14:33:23.571Z,7.30
2022-08-26T14:38:26.072Z,8.15
2022-08-26T14:43:27.956Z,4.72
2022-08-26T14:48:29.693Z,7.53
2022-08-26T14:53:50.452Z,5.50
2022-08-26T14:58:52.197Z,8.05
2022-08-26T15:03:54.046Z,10.52
2022-08-26T15:08:56.136Z,14.35
2022-08-26T15:13:57.970Z,12.23
2022-08-26T15:19:00.071Z,12.70
2022-08-26T15:24:02.719Z,7.97
2022-08-26T15:29:05.373Z,13.57
2022-08-26T15:34:14.557Z,8.88
2022-08-26T15:39:18.846Z,12.27
2022-08-26T15:44:20.860Z,14.57
2022-08-26T15:49:23.428Z,16.85
2022-08-26T15:54:25.450Z,10.90
2022-08-26T15:59:27.604Z,7.78
2022-08-26T16:04:34.145Z,11.07
2022-08-26T16:09:54.122Z,11.55
2022-08-26T16:14:58.815Z,10.10
2022-08-26T16:20:02.675Z,12.68
2022-08-26T16:25:05.403Z,12.48
2022-08-26T16:30:07.945Z,14.05
2022-08-26T16:35:09.969Z,15.88
2022-08-26T16:40:12.236Z,15.48
2022-08-26T16:45:14.284Z,15.43
2022-08-26T16:50:18.418Z,20.42
2022-08-26T16:55:21.771Z,20.55
2022-08-26T17:00:28.133Z,24.63
2022-08-26T17:05:30.335Z,21.25
2022-08-26T17:10:33.098Z,20.00
2022-08-26T17:15:35.016Z,25.27
2022-08-26T17:20:37.199Z,24.63
2022-08-26T17:25:39.085Z,19.60
2022-08-26T17:30:41.603Z,22.73
2022-08-26T17:35:43.495Z,21.88
2022-08-26T17:40:45.386Z,21.60
2022-08-26T17:45:47.422Z,19.30
2022-08-26T17:50:49.488Z,21.60
2022-08-26T18:01:31.711Z,16.58
2022-08-26T18:06:50.380Z,19.27
2022-08-26T18:11:55.152Z,14.63
2022-08-26T18:17:12.528Z,14.25
2022-08-26T18:46:11.880Z,9.48
2022-08-26T18:56:52.366Z,14.35
2022-08-26T19:01:54.684Z,16.13
2022-08-26T19:06:56.846Z,12.65
2022-08-26T19:11:59.249Z,16.83
2022-08-26T19:17:01.443Z,11.60
2022-08-26T19:22:03.448Z,12.30
2022-08-26T19:27:05.624Z,14.20
2022-08-26T19:32:08.651Z,11.82
2022-08-26T19:37:10.873Z,11.63
2022-08-26T19:42:13.049Z,14.82
2022-08-26T19:47:16.981Z,13.50
2022-08-26T19:52:19.057Z,12.50
2022-08-26T19:57:21.632Z,12.55
2022-08-26T20:02:23.543Z,15.63
2022-08-26T20:07:29.551Z,13.43
2022-08-26T20:12:33.606Z,12.40
2022-08-26T20:17:35.655Z,7.80
2022-08-26T20:22:39.074Z,12.35
2022-08-26T20:27:40.991Z,10.05
2022-08-26T20:32:43.473Z,12.68
2022-08-26T20:37:45.593Z,10.90
2022-08-26T20:42:48.705Z,11.93
2022-08-26T20:47:50.768Z,11.77
2022-08-26T20:52:53.873Z,10.70
2022-08-26T20:57:55.743Z,17.80
2022-08-26T21:03:05.916Z,11.75
2022-08-26T21:08:08.039Z,14.02
2022-08-26T21:13:15.433Z,8.48
2022-08-26T21:18:17.800Z,13.02
2022-08-26T21:23:19.645Z,12.00
2022-08-26T21:28:23.620Z,10.68
2022-08-26T21:33:25.487Z,8.00
2022-08-26T21:38:30.844Z,7.78
2022-08-26T21:43:35.310Z,11.05
2022-08-26T21:48:50.350Z,13.65
2022-08-26T21:53:56.480Z,13.27
2022-08-26T21:58:59.777Z,10.60
2022-08-26T22:04:06.801Z,8.88
2022-08-26T22:09:09.127Z,9.95
2022-08-26T22:14:11.628Z,11.10
2022-08-26T22:19:17.001Z,10.15
2022-08-26T22:24:21.775Z,7.20
2022-08-26T22:29:25.737Z,11.77
2022-08-26T22:34:28.281Z,12.25
2022-08-26T22:39:34.783Z,9.63
2022-08-26T22:44:37.589Z,10.85
2022-08-26T22:49:39.375Z,8.48
2022-08-26T22:54:41.226Z,7.03
2022-08-26T22:59:43.317Z,9.68
2022-08-26T23:04:45.175Z,9.93
2022-08-26T23:09:46.967Z,7.40
2022-08-26T23:14:49.146Z,8.10
2022-08-26T23:19:50.931Z,12.90
2022-08-26T23:24:52.716Z,7.85
2022-08-26T23:29:56.627Z,8.13
2022-08-26T23:34:59.537Z,9.45
2022-08-26T23:40:19.364Z,8.70
2022-08-26T23:45:27.908Z,8.98
2022-08-26T23:50:54.494Z,9.63
2022-08-26T23:55:57.595Z,9.73
